Time;durP1;ratioP1;P1;durP2;ratioP2;P2;SDS_P1;SDS_P2;PMS_P1;PMS_P2;Temp;Humidity;BMP_temperature;BMP_pressure;BME280_temperature;BME280_humidity;BME280_pressure;Samples;Min_cycle;Max_cycle;Signal;HPM_P1;HPM_P2
2023/12/14 00:01:53;;;;;;;7.68;3.25;;;;;;;-148.88;100.00;-17125.47;5075355;28;20029;-85
2023/12/14 00:04:47;;;;;;;8.90;3.10;;;;;;;-148.88;100.00;-17125.47;5075469;28;20016;-86
2023/12/14 00:07:28;;;;;;;8.63;3.25;;;;;;;-148.88;100.00;-17125.47;5075305;28;20384;-86
2023/12/14 00:10:20;;;;;;;;;;;;;;;;;;;;;
2023/12/14 00:13:03;;;;;;;;;;;;;;;;;;;;;
2023/12/14 00:15:33;;;;;;;6.47;3.05;;;;;;;-148.88;100.00;-17125.47;5076256;28;20373;-87
2023/12/14 00:17:59;;;;;;;8.38;3.58;;;;;;;-148.88;100.00;-17125.47;5074902;28;20016;-85
2023/12/14 00:20:39;;;;;;;7.85;3.42;;;;;;;-148.88;100.00;-17125.47;5075306;28;20114;-86
2023/12/14 00:23:08;;;;;;;11.60;3.83;;;;;;;-148.88;100.00;-17125.47;5074780;28;20388;-86
2023/12/14 00:25:45;;;;;;;8.93;3.72;;;;;;;-148.88;100.00;-17125.47;5074014;28;20040;-85
2023/12/14 00:28:18;;;;;;;10.02;4.07;;;;;;;-148.88;100.00;-17125.47;5074030;28;20107;-85
2023/12/14 00:30:52;;;;;;;8.97;3.80;;;;;;;-148.88;100.00;-17125.47;5074355;28;20343;-85
2023/12/14 00:33:44;;;;;;;;;;;;;;;;;;;;;
2023/12/14 00:36:22;;;;;;;10.10;3.33;;;;;;;-148.88;100.00;-17125.47;5075283;28;20040;-85
2023/12/14 00:39:13;;;;;;;8.93;3.30;;;;;;;-148.88;100.00;-17125.47;5073151;28;20016;-85
2023/12/14 00:42:08;;;;;;;7.38;2.92;;;;;;;-148.88;100.00;-17125.47;5073340;28;20370;-86
2023/12/14 00:44:44;;;;;;;8.73;3.25;;;;;;;-148.88;100.00;-17125.47;5072733;28;20069;-85
2023/12/14 00:47:15;;;;;;;10.75;4.10;;;;;;;-148.88;100.00;-17125.47;5075123;28;20020;-86
2023/12/14 00:49:52;;;;;;;9.38;3.90;;;;;;;-148.88;100.00;-17125.47;5074137;28;20025;-86
2023/12/14 00:52:22;;;;;;;9.35;3.85;;;;;;;-148.88;100.00;-17125.47;5075561;28;20082;-86
2023/12/14 00:55:11;;;;;;;9.40;4.13;;;;;;;-148.88;100.00;-17125.47;5075645;28;20032;-86
2023/12/14 00:57:48;;;;;;;12.38;3.90;;;;;;;-148.88;100.00;-17125.47;5074380;28;20139;-86
2023/12/14 01:00:13;;;;;;;13.38;3.92;;;;;;;-148.88;100.00;-17125.47;5073199;28;20372;-85
2023/12/14 01:02:39;;;;;;;11.70;4.50;;;;;;;-148.88;100.00;-17125.47;5074735;28;20031;-85
2023/12/14 01:05:04;;;;;;;13.02;5.03;;;;;;;-148.88;100.00;-17125.47;5074393;28;20115;-85
2023/12/14 01:07:30;;;;;;;10.02;4.10;;;;;;;-148.88;100.00;-17125.47;5073951;28;20024;-85
2023/12/14 01:09:55;;;;;;;9.75;3.53;;;;;;;-148.88;100.00;-17125.47;5074284;28;20534;-85
2023/12/14 01:12:21;;;;;;;9.50;4.00;;;;;;;-148.88;100.00;-17125.47;5073945;28;20113;-86
2023/12/14 01:14:46;;;;;;;7.85;3.45;;;;;;;-148.88;100.00;-17125.47;5072538;28;20039;-86
2023/12/14 01:17:11;;;;;;;6.93;3.10;;;;;;;-148.88;100.00;-17125.47;5074318;28;20101;-86
2023/12/14 01:19:40;;;;;;;8.43;3.53;;;;;;;-148.88;100.00;-17125.47;5074138;28;20467;-85
2023/12/14 01:22:05;;;;;;;8.50;3.63;;;;;;;-148.88;100.00;-17125.47;5074552;28;20051;-86
2023/12/14 01:24:30;;;;;;;7.15;3.05;;;;;;;-148.88;100.00;-17125.47;5074509;28;20368;-86
2023/12/14 01:26:56;;;;;;;9.95;3.97;;;;;;;-148.88;100.00;-17125.47;5074495;28;20025;-86
2023/12/14 01:29:21;;;;;;;9.07;3.70;;;;;;;-148.88;100.00;-17125.47;5074429;28;20111;-86
2023/12/14 01:31:47;;;;;;;6.55;2.67;;;;;;;-148.88;100.00;-17125.47;5074318;28;20020;-85
2023/12/14 01:34:12;;;;;;;7.38;3.13;;;;;;;-148.88;100.00;-17125.47;5072819;28;20028;-85
2023/12/14 01:36:40;;;;;;;7.43;3.08;;;;;;;-148.88;100.00;-17125.47;5073866;28;20052;-86
2023/12/14 01:39:05;;;;;;;6.95;3.53;;;;;;;-148.88;100.00;-17125.47;5072655;28;20061;-85
2023/12/14 01:41:31;;;;;;;7.70;3.28;;;;;;;-148.88;100.00;-17125.47;5073668;28;20027;-85
2023/12/14 01:43:56;;;;;;;7.20;3.20;;;;;;;-148.88;100.00;-17125.47;5073475;28;20020;-85
2023/12/14 01:46:21;;;;;;;5.57;2.83;;;;;;;-148.88;100.00;-17125.47;5073424;28;20467;-85
2023/12/14 01:48:47;;;;;;;4.00;1.95;;;;;;;-148.88;100.00;-17125.47;5073180;28;20382;-85
2023/12/14 01:51:12;;;;;;;6.53;2.55;;;;;;;-148.88;100.00;-17125.47;5073339;28;20078;-85
2023/12/14 01:53:38;;;;;;;5.35;2.65;;;;;;;-148.88;100.00;-17125.47;5073366;28;20394;-85
2023/12/14 01:56:03;;;;;;;7.10;3.25;;;;;;;-148.88;100.00;-17125.47;5073279;28;20024;-85
2023/12/14 01:58:29;;;;;;;7.82;3.40;;;;;;;-148.88;100.00;-17125.47;5073387;28;20017;-85
2023/12/14 02:01:15;;;;;;;7.70;2.75;;;;;;;-148.88;100.00;-17125.47;5072190;28;20086;-85
2023/12/14 02:03:48;;;;;;;8.13;2.75;;;;;;;-148.88;100.00;-17125.47;5073946;28;20050;-85
2023/12/14 02:06:13;;;;;;;5.10;2.50;;;;;;;-148.88;100.00;-17125.47;5073954;28;20372;-85
2023/12/14 02:08:39;;;;;;;5.90;3.05;;;;;;;-148.88;100.00;-17125.47;5072311;28;20020;-85
2023/12/14 02:11:04;;;;;;;6.82;3.20;;;;;;;-148.88;100.00;-17125.47;5073199;28;20081;-85
2023/12/14 02:13:30;;;;;;;7.10;3.25;;;;;;;-148.88;100.00;-17125.47;5071750;28;20108;-85
2023/12/14 02:15:55;;;;;;;7.45;3.28;;;;;;;-148.88;100.00;-17125.47;5072886;28;20032;-86
2023/12/14 02:18:20;;;;;;;7.75;3.58;;;;;;;-148.88;100.00;-17125.47;5073347;28;20029;-85
2023/12/14 02:20:46;;;;;;;6.38;3.13;;;;;;;-148.88;100.00;-17125.47;5072801;28;20028;-85
2023/12/14 02:23:11;;;;;;;8.15;3.58;;;;;;;-148.88;100.00;-17125.47;5071122;28;20063;-85
2023/12/14 02:25:37;;;;;;;7.20;3.15;;;;;;;-148.88;100.00;-17125.47;5072908;28;20051;-85
2023/12/14 02:28:02;;;;;;;9.43;4.25;;;;;;;-148.88;100.00;-17125.47;5072627;28;20077;-85
2023/12/14 02:30:27;;;;;;;8.00;3.60;;;;;;;-148.88;100.00;-17125.47;5072577;28;20033;-85
2023/12/14 02:32:53;;;;;;;10.77;3.83;;;;;;;-148.88;100.00;-17125.47;5073248;28;20040;-85
2023/12/14 02:35:18;;;;;;;11.15;4.20;;;;;;;-148.88;100.00;-17125.47;5073030;28;20339;-86
2023/12/14 02:37:43;;;;;;;8.65;4.30;;;;;;;-148.88;100.00;-17125.47;5073023;28;20087;-84
2023/12/14 02:40:10;;;;;;;9.35;4.65;;;;;;;-148.88;100.00;-17125.47;5073735;28;20027;-85
2023/12/14 02:42:36;;;;;;;11.32;4.43;;;;;;;-148.88;100.00;-17125.47;5073286;28;20027;-86
2023/12/14 02:45:03;;;;;;;9.77;3.88;;;;;;;-148.88;100.00;-17125.47;5072953;28;20020;-85
2023/12/14 02:47:29;;;;;;;8.80;4.25;;;;;;;-148.88;100.00;-17125.47;5073206;28;20024;-85
2023/12/14 02:49:54;;;;;;;8.35;3.58;;;;;;;-148.88;100.00;-17125.47;5071838;28;20050;-85
2023/12/14 02:52:20;;;;;;;7.85;4.13;;;;;;;-148.88;100.00;-17125.47;5071076;28;20024;-84
2023/12/14 02:54:45;;;;;;;8.95;3.92;;;;;;;-148.88;100.00;-17125.47;5072566;28;20055;-85
2023/12/14 02:57:10;;;;;;;6.70;3.60;;;;;;;-148.88;100.00;-17125.47;5072793;28;20032;-85
2023/12/14 02:59:36;;;;;;;8.30;3.88;;;;;;;-148.88;100.00;-17125.47;5072293;28;20108;-85
2023/12/14 03:02:01;;;;;;;8.88;3.85;;;;;;;-148.88;100.00;-17125.47;5072880;28;20036;-85
2023/12/14 03:04:27;;;;;;;8.88;4.03;;;;;;;-148.88;100.00;-17125.47;5071290;28;20021;-85
2023/12/14 03:06:53;;;;;;;8.55;4.03;;;;;;;-148.88;100.00;-17125.47;5072780;28;20028;-85
2023/12/14 03:09:19;;;;;;;8.10;3.70;;;;;;;-148.88;100.00;-17125.47;5075028;28;20027;-85
2023/12/14 03:11:44;;;;;;;8.48;3.63;;;;;;;-148.88;100.00;-17125.47;5076830;28;20025;-85
2023/12/14 03:14:10;;;;;;;8.95;4.30;;;;;;;-148.88;100.00;-17125.47;5077050;28;20074;-83
2023/12/14 03:16:35;;;;;;;8.13;3.95;;;;;;;-148.88;100.00;-17125.47;5076899;28;20031;-85
2023/12/14 03:19:01;;;;;;;8.93;3.88;;;;;;;-148.88;100.00;-17125.47;5076547;28;20035;-85
2023/12/14 03:21:26;;;;;;;8.82;4.05;;;;;;;-148.88;100.00;-17125.47;5076800;28;20052;-85
2023/12/14 03:23:51;;;;;;;8.32;4.68;;;;;;;-148.88;100.00;-17125.47;5075277;28;20442;-86
2023/12/14 03:26:17;;;;;;;10.05;4.72;;;;;;;-148.88;100.00;-17125.47;5076829;28;20024;-85
2023/12/14 03:28:42;;;;;;;9.40;4.20;;;;;;;-148.88;100.00;-17125.47;5075906;28;20391;-85
2023/12/14 03:31:11;;;;;;;9.70;4.38;;;;;;;-148.88;100.00;-17125.47;5075968;28;20132;-85
2023/12/14 03:33:36;;;;;;;9.77;4.80;;;;;;;-148.88;100.00;-17125.47;5075953;28;20024;-86
2023/12/14 03:36:02;;;;;;;9.98;5.05;;;;;;;-148.88;100.00;-17125.47;5074499;28;20065;-85
2023/12/14 03:38:27;;;;;;;9.82;4.68;;;;;;;-148.88;100.00;-17125.47;5075702;28;20025;-85
2023/12/14 03:40:53;;;;;;;12.75;5.60;;;;;;;-148.88;100.00;-17125.47;5075969;28;20035;-85
2023/12/14 03:43:18;;;;;;;11.13;5.20;;;;;;;-148.88;100.00;-17125.47;5075943;28;20024;-85
2023/12/14 03:45:44;;;;;;;12.65;5.43;;;;;;;-148.88;100.00;-17125.47;5075965;28;20027;-85
2023/12/14 03:48:10;;;;;;;9.63;4.13;;;;;;;-148.88;100.00;-17125.47;5076237;28;20039;-85
2023/12/14 03:50:35;;;;;;;11.00;5.00;;;;;;;-148.88;100.00;-17125.47;5076746;28;20119;-85
2023/12/14 03:53:01;;;;;;;10.82;4.85;;;;;;;-148.88;100.00;-17125.47;5076416;28;20026;-84
2023/12/14 03:55:26;;;;;;;10.57;5.13;;;;;;;-148.88;100.00;-17125.47;5076235;28;20017;-85
2023/12/14 03:57:52;;;;;;;11.82;5.95;;;;;;;-148.88;100.00;-17125.47;5075604;28;20025;-85
2023/12/14 04:00:17;;;;;;;11.38;5.00;;;;;;;-148.88;100.00;-17125.47;5074452;28;20044;-85
2023/12/14 04:02:43;;;;;;;11.95;5.22;;;;;;;-148.88;100.00;-17125.47;5076254;28;20025;-84
2023/12/14 04:05:09;;;;;;;10.75;4.78;;;;;;;-148.88;100.00;-17125.47;5075700;28;20475;-86
2023/12/14 04:07:41;;;;;;;13.50;6.22;;;;;;;-148.88;100.00;-17125.47;5073962;28;20110;-85
2023/12/14 04:10:13;;;;;;;14.50;6.57;;;;;;;-148.88;100.00;-17125.47;5075081;28;20101;-85
2023/12/14 04:12:41;;;;;;;12.05;5.78;;;;;;;-148.88;100.00;-17125.47;5075514;28;20024;-85
2023/12/14 04:15:08;;;;;;;12.25;5.65;;;;;;;-148.88;100.00;-17125.47;5074202;28;20511;-85
2023/12/14 04:17:34;;;;;;;12.02;5.75;;;;;;;-148.88;100.00;-17125.47;5073850;28;20024;-85
2023/12/14 04:20:00;;;;;;;13.32;6.68;;;;;;;-148.88;100.00;-17125.47;5075679;28;20024;-84
2023/12/14 04:22:26;;;;;;;14.13;6.28;;;;;;;-148.88;100.00;-17125.47;5074023;28;20391;-85
2023/12/14 04:24:51;;;;;;;12.35;6.07;;;;;;;-148.88;100.00;-17125.47;5075681;28;20033;-84
2023/12/14 04:27:17;;;;;;;12.15;5.78;;;;;;;-148.88;100.00;-17125.47;5075640;28;20044;-85
2023/12/14 04:29:42;;;;;;;19.27;6.40;;;;;;;-148.88;100.00;-17125.47;5075100;28;20480;-85
2023/12/14 04:32:08;;;;;;;9.50;5.15;;;;;;;-148.88;100.00;-17125.47;5075579;28;20020;-85
2023/12/14 04:34:33;;;;;;;10.45;5.75;;;;;;;-148.88;100.00;-17125.47;5073590;28;20079;-85
2023/12/14 04:36:58;;;;;;;10.63;5.53;;;;;;;-148.88;100.00;-17125.47;5073552;28;20049;-85
2023/12/14 04:39:25;;;;;;;12.63;5.68;;;;;;;-148.88;100.00;-17125.47;5075058;28;20142;-84
2023/12/14 04:41:50;;;;;;;9.98;4.45;;;;;;;-148.88;100.00;-17125.47;5075091;28;20038;-85
2023/12/14 04:44:16;;;;;;;12.90;5.82;;;;;;;-148.88;100.00;-17125.47;5074693;28;20027;-85
2023/12/14 04:46:42;;;;;;;12.25;5.45;;;;;;;-148.88;100.00;-17125.47;5075141;28;20040;-84
2023/12/14 04:49:07;;;;;;;11.65;4.30;;;;;;;-148.88;100.00;-17125.47;5075143;28;20031;-84
2023/12/14 04:51:33;;;;;;;10.65;5.32;;;;;;;-148.88;100.00;-17125.47;5074257;28;20021;-84
2023/12/14 04:53:58;;;;;;;9.57;4.85;;;;;;;-148.88;100.00;-17125.47;5075293;28;20116;-84
2023/12/14 04:56:23;;;;;;;9.38;4.78;;;;;;;-148.88;100.00;-17125.47;5075256;28;20056;-84
2023/12/14 04:58:49;;;;;;;11.75;4.85;;;;;;;-148.88;100.00;-17125.47;5075404;28;20103;-84
2023/12/14 05:01:14;;;;;;;9.05;4.57;;;;;;;-148.88;100.00;-17125.47;5075259;28;20103;-83
2023/12/14 05:03:40;;;;;;;8.57;4.25;;;;;;;-148.88;100.00;-17125.47;5073725;28;20027;-84
2023/12/14 05:06:06;;;;;;;9.05;5.05;;;;;;;-148.88;100.00;-17125.47;5073241;28;20018;-84
2023/12/14 05:08:31;;;;;;;9.38;5.00;;;;;;;-148.88;100.00;-17125.47;5072965;28;20028;-84
2023/12/14 05:10:57;;;;;;;8.80;4.43;;;;;;;-148.88;100.00;-17125.47;5073623;28;20020;-84
2023/12/14 05:13:22;;;;;;;11.93;5.80;;;;;;;-148.88;100.00;-17125.47;5074181;28;20047;-84
2023/12/14 05:15:47;;;;;;;10.90;5.25;;;;;;;-148.88;100.00;-17125.47;5075210;28;20063;-84
2023/12/14 05:18:13;;;;;;;11.77;4.93;;;;;;;-148.88;100.00;-17125.47;5074815;28;20016;-83
2023/12/14 05:20:38;;;;;;;10.65;4.78;;;;;;;-148.88;100.00;-17125.47;5074099;28;20478;-84
2023/12/14 05:23:03;;;;;;;10.75;5.47;;;;;;;-148.88;100.00;-17125.47;5073970;28;20364;-84
2023/12/14 05:25:29;;;;;;;9.52;4.60;;;;;;;-148.88;100.00;-17125.47;5074320;28;20024;-84
2023/12/14 05:27:54;;;;;;;11.18;5.38;;;;;;;-148.88;100.00;-17125.47;5073570;28;20024;-84
2023/12/14 05:30:19;;;;;;;12.52;5.40;;;;;;;-148.88;100.00;-17125.47;5072045;28;20023;-84
2023/12/14 05:32:45;;;;;;;10.15;5.13;;;;;;;-148.88;100.00;-17125.47;5072816;28;20024;-82
2023/12/14 05:35:11;;;;;;;10.93;5.70;;;;;;;-148.88;100.00;-17125.47;5074222;28;20020;-83
2023/12/14 05:37:39;;;;;;;9.50;4.72;;;;;;;-148.88;100.00;-17125.47;5073016;28;20439;-84
2023/12/14 05:40:05;;;;;;;9.23;4.55;;;;;;;-148.88;100.00;-17125.47;5073773;28;20074;-84
2023/12/14 05:42:30;;;;;;;9.50;4.25;;;;;;;-148.88;100.00;-17125.47;5073317;28;20024;-86
2023/12/14 05:44:56;;;;;;;11.00;5.10;;;;;;;-148.88;100.00;-17125.47;5073850;28;20495;-85
2023/12/14 05:47:21;;;;;;;11.95;4.78;;;;;;;-148.88;100.00;-17125.47;5073147;28;20020;-86
2023/12/14 05:49:46;;;;;;;10.88;5.43;;;;;;;-148.88;100.00;-17125.47;5073915;28;20379;-85
2023/12/14 05:52:12;;;;;;;9.93;4.57;;;;;;;-148.88;100.00;-17125.47;5074825;28;20033;-86
2023/12/14 05:54:39;;;;;;;9.20;5.50;;;;;;;-148.88;100.00;-17125.47;5073330;28;20039;-84
2023/12/14 05:57:05;;;;;;;9.27;4.85;;;;;;;-148.88;100.00;-17125.47;5073982;28;20024;-85
2023/12/14 05:59:30;;;;;;;10.15;4.55;;;;;;;-148.88;100.00;-17125.47;5073849;28;20028;-85
2023/12/14 06:02:00;;;;;;;9.70;4.97;;;;;;;-148.88;100.00;-17125.47;5072424;28;20024;-85
2023/12/14 06:04:34;;;;;;;11.32;5.05;;;;;;;-148.88;100.00;-17125.47;5074404;28;20024;-85
2023/12/14 06:07:00;;;;;;;11.60;5.57;;;;;;;-148.88;100.00;-17125.47;5073991;28;20498;-85
2023/12/14 06:09:33;;;;;;;10.02;5.57;;;;;;;-148.88;100.00;-17125.47;5071962;28;20017;-85
2023/12/14 06:11:59;;;;;;;12.02;5.50;;;;;;;-148.88;100.00;-17125.47;5073686;28;20135;-85
2023/12/14 06:14:25;;;;;;;11.85;5.57;;;;;;;-148.88;100.00;-17125.47;5074028;28;20391;-86
2023/12/14 06:16:50;;;;;;;10.20;4.97;;;;;;;-148.88;100.00;-17125.47;5072625;28;20463;-87
2023/12/14 06:19:16;;;;;;;12.65;5.70;;;;;;;-148.88;100.00;-17125.47;5073477;28;20116;-86
2023/12/14 06:21:41;;;;;;;11.02;5.57;;;;;;;-148.88;100.00;-17125.47;5073483;28;20056;-86
2023/12/14 06:24:07;;;;;;;9.52;4.63;;;;;;;-148.88;100.00;-17125.47;5074248;28;20480;-86
2023/12/14 06:26:32;;;;;;;11.93;5.25;;;;;;;-148.88;100.00;-17125.47;5074478;28;20020;-85
2023/12/14 06:28:57;;;;;;;11.05;5.20;;;;;;;-148.88;100.00;-17125.47;5072348;28;20048;-86
2023/12/14 06:31:23;;;;;;;11.18;5.85;;;;;;;-148.88;100.00;-17125.47;5073337;28;20029;-85
2023/12/14 06:33:48;;;;;;;11.43;5.25;;;;;;;-148.88;100.00;-17125.47;5072153;28;20055;-85
2023/12/14 06:36:17;;;;;;;12.75;5.93;;;;;;;-148.88;100.00;-17125.47;5073397;28;20032;-85
2023/12/14 06:38:43;;;;;;;12.60;5.63;;;;;;;-148.88;100.00;-17125.47;5072943;28;20027;-85
2023/12/14 06:41:18;;;;;;;12.52;5.40;;;;;;;-148.88;100.00;-17125.47;5072987;28;20029;-85
2023/12/14 06:43:43;;;;;;;13.07;5.85;;;;;;;-148.88;100.00;-17125.47;5072100;28;20508;-87
2023/12/14 06:46:09;;;;;;;13.73;6.53;;;;;;;-148.88;100.00;-17125.47;5071846;28;20115;-86
2023/12/14 06:48:34;;;;;;;14.27;5.93;;;;;;;-148.88;100.00;-17125.47;5073117;28;20065;-84
2023/12/14 06:51:00;;;;;;;12.77;5.65;;;;;;;-148.88;100.00;-17125.47;5073306;28;20025;-84
2023/12/14 06:53:25;;;;;;;11.23;6.05;;;;;;;-148.88;100.00;-17125.47;5072532;28;20039;-83
2023/12/14 06:55:50;;;;;;;11.85;5.55;;;;;;;-148.88;100.00;-17125.47;5073866;28;20107;-83
2023/12/14 06:58:25;;;;;;;12.75;5.70;;;;;;;-148.88;100.00;-17125.47;5073824;28;20103;-84
2023/12/14 07:00:50;;;;;;;10.88;5.50;;;;;;;-148.88;100.00;-17125.47;5072752;28;20028;-84
2023/12/14 07:03:16;;;;;;;11.55;5.07;;;;;;;-148.88;100.00;-17125.47;5074213;28;20020;-83
2023/12/14 07:05:41;;;;;;;11.63;5.55;;;;;;;-148.88;100.00;-17125.47;5073345;28;20028;-83
2023/12/14 07:08:06;;;;;;;10.00;5.13;;;;;;;-148.88;100.00;-17125.47;5072922;28;20027;-83
2023/12/14 07:10:32;;;;;;;10.75;5.40;;;;;;;-148.88;100.00;-17125.47;5072734;28;20064;-85
2023/12/14 07:12:57;;;;;;;8.65;3.75;;;;;;;-148.88;100.00;-17125.47;5072962;28;20028;-84
2023/12/14 07:15:23;;;;;;;7.07;3.45;;;;;;;-148.88;100.00;-17125.47;5071495;28;20024;-84
2023/12/14 07:17:49;;;;;;;7.45;4.10;;;;;;;-148.88;100.00;-17125.47;5072614;28;20028;-84
2023/12/14 07:20:15;;;;;;;8.32;4.18;;;;;;;-148.88;100.00;-17125.47;5072645;28;20091;-84
2023/12/14 07:22:41;;;;;;;9.25;4.47;;;;;;;-148.88;100.00;-17125.47;5073260;28;20470;-84
2023/12/14 07:25:06;;;;;;;9.18;4.15;;;;;;;-148.88;100.00;-17125.47;5072836;28;20032;-83
2023/12/14 07:27:32;;;;;;;9.00;4.47;;;;;;;-148.88;100.00;-17125.47;5071433;28;20126;-85
2023/12/14 07:29:57;;;;;;;8.50;4.72;;;;;;;-148.88;100.00;-17125.47;5072565;28;20039;-83
2023/12/14 07:32:23;;;;;;;8.55;4.55;;;;;;;-148.88;100.00;-17125.47;5072696;28;20043;-84
2023/12/14 07:34:48;;;;;;;10.30;5.55;;;;;;;-148.88;100.00;-17125.47;5073715;28;20055;-83
2023/12/14 07:37:14;;;;;;;9.48;4.90;;;;;;;-148.88;100.00;-17125.47;5073052;28;20335;-82
2023/12/14 07:39:39;;;;;;;11.18;5.68;;;;;;;-148.88;100.00;-17125.47;5071099;28;20024;-83
2023/12/14 07:42:05;;;;;;;8.75;4.68;;;;;;;-148.88;100.00;-17125.47;5071224;28;20447;-84
2023/12/14 07:44:31;;;;;;;10.45;5.38;;;;;;;-148.88;100.00;-17125.47;5071936;28;20072;-83
2023/12/14 07:46:58;;;;;;;8.90;5.93;;;;;;;-148.88;100.00;-17125.47;5072965;28;20029;-83
2023/12/14 07:49:24;;;;;;;12.23;5.05;;;;;;;-148.88;100.00;-17125.47;5071336;28;20402;-84
2023/12/14 07:51:50;;;;;;;9.75;5.85;;;;;;;-148.88;100.00;-17125.47;5070893;28;20031;-84
2023/12/14 07:54:15;;;;;;;11.00;5.65;;;;;;;-148.88;100.00;-17125.47;5074656;28;20103;-83
2023/12/14 07:56:40;;;;;;;11.63;5.97;;;;;;;-148.88;100.00;-17125.47;5075728;28;20017;-83
2023/12/14 07:59:07;;;;;;;11.73;6.57;;;;;;;-148.88;100.00;-17125.47;5075571;28;20020;-83
2023/12/14 08:01:36;;;;;;;11.40;5.20;;;;;;;-148.88;100.00;-17125.47;5076076;28;20067;-84
2023/12/14 08:04:02;;;;;;;12.07;5.22;;;;;;;-148.88;100.00;-17125.47;5075536;28;20046;-84
2023/12/14 08:06:28;;;;;;;12.00;5.60;;;;;;;-148.88;100.00;-17125.47;5076082;28;20027;-84
2023/12/14 08:08:54;;;;;;;11.10;5.75;;;;;;;-148.88;100.00;-17125.47;5076201;28;20025;-83
2023/12/14 08:11:20;;;;;;;11.50;5.53;;;;;;;-148.88;100.00;-17125.47;5076843;28;20051;-83
2023/12/14 08:13:45;;;;;;;10.50;5.70;;;;;;;-148.88;100.00;-17125.47;5076585;28;20360;-84
2023/12/14 08:16:13;;;;;;;11.48;5.85;;;;;;;-148.88;100.00;-17125.47;5075863;28;20059;-85
2023/12/14 08:19:05;;;;;;;12.77;5.72;;;;;;;-148.88;100.00;-17125.47;5076978;28;20094;-84
2023/12/14 08:21:30;;;;;;;11.45;5.80;;;;;;;-148.88;100.00;-17125.47;5071962;28;20090;-83
2023/12/14 08:23:59;;;;;;;12.95;5.53;;;;;;;-148.88;100.00;-17125.47;5074569;28;20024;-84
2023/12/14 08:26:24;;;;;;;10.60;5.85;;;;;;;-148.88;100.00;-17125.47;5075600;28;20030;-85
2023/12/14 08:28:49;;;;;;;11.25;5.57;;;;;;;-148.88;100.00;-17125.47;5075208;28;20025;-86
2023/12/14 08:31:15;;;;;;;13.60;5.53;;;;;;;-148.88;100.00;-17125.47;5073722;28;20068;-85
2023/12/14 08:33:43;;;;;;;10.55;5.13;;;;;;;-148.88;100.00;-17125.47;5074111;28;20081;-85
2023/12/14 08:36:09;;;;;;;11.55;5.00;;;;;;;-148.88;100.00;-17125.47;5075321;28;20063;-85
2023/12/14 08:38:34;;;;;;;10.55;4.68;;;;;;;-148.88;100.00;-17125.47;5073917;28;20109;-85
2023/12/14 08:41:00;;;;;;;11.88;5.55;;;;;;;-148.88;100.00;-17125.47;5073939;28;20029;-84
2023/12/14 08:43:26;;;;;;;13.45;5.22;;;;;;;-148.88;100.00;-17125.47;5075477;28;20021;-85
2023/12/14 08:45:51;;;;;;;13.48;5.50;;;;;;;-148.88;100.00;-17125.47;5075487;28;20025;-86
2023/12/14 08:48:16;;;;;;;10.85;4.85;;;;;;;-148.88;100.00;-17125.47;5075863;28;20032;-87
2023/12/14 08:50:42;;;;;;;10.02;4.97;;;;;;;-148.88;100.00;-17125.47;5075457;28;20017;-86
2023/12/14 08:53:08;;;;;;;9.75;5.65;;;;;;;-148.88;100.00;-17125.47;5075352;28;20112;-86
2023/12/14 08:55:34;;;;;;;10.85;5.25;;;;;;;-148.88;100.00;-17125.47;5075007;28;20066;-86
2023/12/14 08:58:00;;;;;;;10.95;4.95;;;;;;;-148.88;100.00;-17125.47;5074774;28;20024;-86
2023/12/14 09:00:26;;;;;;;9.93;4.95;;;;;;;-148.88;100.00;-17125.47;5074899;28;20520;-86
2023/12/14 09:02:51;;;;;;;10.88;4.97;;;;;;;-148.88;100.00;-17125.47;5074959;28;20531;-86
2023/12/14 09:05:19;;;;;;;12.18;5.72;;;;;;;-148.88;100.00;-17125.47;5073842;28;20032;-86
2023/12/14 09:07:47;;;;;;;11.63;5.25;;;;;;;-148.88;100.00;-17125.47;5075346;28;20386;-87
2023/12/14 09:10:13;;;;;;;11.38;5.13;;;;;;;-148.88;100.00;-17125.47;5074327;28;20166;-86
2023/12/14 09:12:38;;;;;;;12.20;5.10;;;;;;;-148.88;100.00;-17125.47;5073105;28;20166;-86
2023/12/14 09:15:04;;;;;;;9.15;5.30;;;;;;;-148.88;100.00;-17125.47;5073035;28;20059;-86
2023/12/14 09:17:32;;;;;;;10.63;4.93;;;;;;;-148.88;100.00;-17125.47;5074312;28;20376;-87
2023/12/14 09:20:01;;;;;;;11.52;5.75;;;;;;;-148.88;100.00;-17125.47;5074667;28;20111;-86
2023/12/14 09:22:26;;;;;;;11.95;4.80;;;;;;;-148.88;100.00;-17125.47;5075085;28;20115;-86
2023/12/14 09:24:52;;;;;;;9.20;5.05;;;;;;;-148.88;100.00;-17125.47;5074697;28;20048;-86
2023/12/14 09:27:18;;;;;;;9.77;4.82;;;;;;;-148.88;100.00;-17125.47;5074683;28;20024;-86
2023/12/14 09:29:43;;;;;;;11.27;5.40;;;;;;;-148.88;100.00;-17125.47;5074187;28;20020;-87
2023/12/14 09:32:09;;;;;;;8.90;4.75;;;;;;;-148.88;100.00;-17125.47;5074138;28;20032;-86
2023/12/14 09:34:34;;;;;;;13.43;5.40;;;;;;;-148.88;100.00;-17125.47;5074422;28;20048;-86
2023/12/14 09:36:59;;;;;;;8.48;4.53;;;;;;;-148.88;100.00;-17125.47;5074242;28;20028;-86
2023/12/14 09:39:25;;;;;;;10.55;4.82;;;;;;;-148.88;100.00;-17125.47;5074057;28;20021;-86
2023/12/14 09:41:50;;;;;;;10.85;7.03;;;;;;;-148.88;100.00;-17125.47;5073920;28;20436;-87
2023/12/14 09:44:16;;;;;;;9.73;4.90;;;;;;;-148.88;100.00;-17125.47;5073986;28;20031;-85
2023/12/14 09:46:48;;;;;;;12.25;5.88;;;;;;;-148.88;100.00;-17125.47;5073939;28;20448;-86
2023/12/14 09:49:15;;;;;;;10.35;5.18;;;;;;;-148.88;100.00;-17125.47;5073800;28;20095;-85
2023/12/14 09:51:41;;;;;;;10.40;5.55;;;;;;;-148.88;100.00;-17125.47;5072901;28;20025;-86
2023/12/14 09:54:06;;;;;;;10.35;4.82;;;;;;;-148.88;100.00;-17125.47;5072816;28;20087;-85
2023/12/14 09:56:32;;;;;;;12.98;5.72;;;;;;;-148.88;100.00;-17125.47;5074093;28;20024;-86
2023/12/14 09:58:58;;;;;;;9.23;4.68;;;;;;;-148.88;100.00;-17125.47;5073005;28;20044;-86
2023/12/14 10:01:27;;;;;;;10.23;5.35;;;;;;;-148.88;100.00;-17125.47;5072925;28;20072;-85
2023/12/14 10:04:16;;;;;;;7.95;4.97;;;;;;;-148.88;100.00;-17125.47;5073809;28;20475;-85
2023/12/14 10:06:43;;;;;;;9.80;4.60;;;;;;;-148.88;100.00;-17125.47;5073887;28;20021;-85
2023/12/14 10:09:09;;;;;;;10.27;4.93;;;;;;;-148.88;100.00;-17125.47;5073094;28;20073;-87
2023/12/14 10:11:37;;;;;;;11.85;4.93;;;;;;;-148.88;100.00;-17125.47;5072559;28;20033;-86
2023/12/14 10:14:04;;;;;;;9.45;5.38;;;;;;;-148.88;100.00;-17125.47;5072691;28;20025;-87
2023/12/14 10:16:31;;;;;;;9.10;4.43;;;;;;;-148.88;100.00;-17125.47;5072472;28;20036;-84
2023/12/14 10:19:00;;;;;;;10.00;4.95;;;;;;;-148.88;100.00;-17125.47;5073477;28;20017;-86
2023/12/14 10:21:28;;;;;;;9.00;4.93;;;;;;;-148.88;100.00;-17125.47;5072935;28;20017;-86
2023/12/14 10:23:56;;;;;;;9.23;4.88;;;;;;;-148.88;100.00;-17125.47;5073961;28;20075;-85
2023/12/14 10:26:25;;;;;;;8.43;3.97;;;;;;;-148.88;100.00;-17125.47;5072322;28;20061;-85
2023/12/14 10:28:51;;;;;;;9.25;3.70;;;;;;;-148.88;100.00;-17125.47;5073474;28;20451;-83
2023/12/14 10:31:19;;;;;;;7.95;4.07;;;;;;;-148.88;100.00;-17125.47;5073584;28;20028;-85
2023/12/14 10:33:45;;;;;;;8.25;4.10;;;;;;;-148.88;100.00;-17125.47;5074439;28;20078;-85
2023/12/14 10:36:12;;;;;;;8.60;4.13;;;;;;;-148.88;100.00;-17125.47;5072127;28;20032;-84
2023/12/14 10:38:38;;;;;;;7.63;3.67;;;;;;;-148.88;100.00;-17125.47;5073567;28;20032;-86
2023/12/14 10:41:07;;;;;;;11.05;4.38;;;;;;;-148.88;100.00;-17125.47;5073538;28;20031;-85
2023/12/14 10:43:36;;;;;;;6.60;3.42;;;;;;;-148.88;100.00;-17125.47;5072035;28;20028;-85
2023/12/14 10:46:04;;;;;;;7.75;3.95;;;;;;;-148.88;100.00;-17125.47;5073077;28;20090;-85
2023/12/14 10:48:30;;;;;;;8.00;4.05;;;;;;;-148.88;100.00;-17125.47;5073385;28;20059;-86
2023/12/14 10:51:00;;;;;;;6.60;3.20;;;;;;;-148.88;100.00;-17125.47;5073370;28;20028;-86
2023/12/14 10:53:26;;;;;;;6.30;3.38;;;;;;;-148.88;100.00;-17125.47;5073083;28;20029;-85
2023/12/14 10:55:53;;;;;;;7.32;3.38;;;;;;;-148.88;100.00;-17125.47;5073349;28;20046;-86
2023/12/14 10:58:19;;;;;;;7.57;3.35;;;;;;;-148.88;100.00;-17125.47;5071669;28;20024;-86
2023/12/14 11:01:00;;;;;;;8.70;3.63;;;;;;;-148.88;100.00;-17125.47;5072224;28;20025;-85
2023/12/14 11:03:26;;;;;;;6.35;3.50;;;;;;;-148.88;100.00;-17125.47;5073498;28;20027;-85